Time;durP1;ratioP1;P1;durP2;ratioP2;P2;SDS_P1;SDS_P2;PMS_P1;PMS_P2;Temp;Humidity;BMP_temperature;BMP_pressure;BME280_temperature;BME280_humidity;BME280_pressure;Samples;Min_cycle;Max_cycle;Signal;HPM_P1;HPM_P2
2021/08/18 00:00:41;;;;;;;6.57;2.40;;;564.10;2355.20;;;;;;5014848;28;20026;-80
2021/08/18 00:03:08;;;;;;;6.25;2.38;;;588.80;2355.20;;;;;;5014798;28;20038;-79
2021/08/18 00:05:34;;;;;;;5.28;2.67;;;588.90;2329.60;;;;;;5015520;28;20109;-79
2021/08/18 00:08:01;;;;;;;9.00;3.20;;;564.10;2304.00;;;;;;5014726;28;20452;-79
2021/08/18 00:10:29;;;;;;;11.65;3.92;;;563.70;2380.80;;;;;;5015987;28;20022;-80
2021/08/18 00:12:55;;;;;;;9.93;3.03;;;563.40;2432.00;;;;;;5015371;28;20033;-81
2021/08/18 00:15:22;;;;;;;7.65;3.17;;;538.50;2406.40;;;;;;5016068;28;20161;-82
2021/08/18 00:17:47;;;;;;;12.07;3.33;;;563.20;2432.00;;;;;;5014336;28;20026;-82
2021/08/18 00:20:13;;;;;;;10.63;3.67;;;538.40;2406.40;;;;;;5015506;28;20386;-81
2021/08/18 00:22:40;;;;;;;6.15;3.28;;;538.20;2406.40;;;;;;5015503;28;20022;-82
2021/08/18 00:25:07;;;;;;;9.65;3.47;;;538.40;2406.40;;;;;;5014031;28;20076;-81
2021/08/18 00:27:33;;;;;;;7.50;3.70;;;538.20;2406.40;;;;;;5014414;28;20030;-82
2021/08/18 00:29:58;;;;;;;6.35;3.53;;;538.50;2406.40;;;;;;5014355;28;20022;-82
2021/08/18 00:32:25;;;;;;;11.88;4.13;;;538.50;2406.40;;;;;;5015656;28;20030;-82
2021/08/18 00:34:50;;;;;;;7.50;4.47;;;538.40;2406.40;;;;;;5015204;28;20022;-82
2021/08/18 00:37:16;;;;;;;9.63;3.75;;;538.30;2406.40;;;;;;5014249;28;20034;-79
2021/08/18 00:39:42;;;;;;;12.52;4.20;;;538.50;2406.40;;;;;;5013918;28;20026;-83
2021/08/18 00:42:08;;;;;;;11.20;4.15;;;538.30;2406.40;;;;;;5014246;28;20030;-81
2021/08/18 00:44:37;;;;;;;12.05;3.92;;;538.40;2406.40;;;;;;5014201;28;20121;-82
2021/08/18 00:47:05;;;;;;;7.97;4.15;;;563.30;2432.00;;;;;;5013951;28;20068;-82
2021/08/18 00:49:32;;;;;;;9.13;4.10;;;563.50;2432.00;;;;;;5014098;28;20022;-82
2021/08/18 00:51:59;;;;;;;8.25;4.03;;;563.70;2432.00;;;;;;5014038;28;20030;-81
2021/08/18 00:54:25;;;;;;;10.88;4.03;;;563.70;2432.00;;;;;;5013457;28;20137;-81
2021/08/18 00:56:53;;;;;;;6.15;3.17;;;563.70;2432.00;;;;;;5013706;28;20501;-81
2021/08/18 00:59:19;;;;;;;7.32;3.47;;;563.80;2432.00;;;;;;5013914;28;20033;-80
2021/08/18 01:01:45;;;;;;;7.38;3.70;;;563.70;2432.00;;;;;;5013645;28;20033;-80
2021/08/18 01:04:12;;;;;;;5.82;3.25;;;563.70;2432.00;;;;;;5013889;28;20026;-81
2021/08/18 01:06:40;;;;;;;6.05;3.15;;;563.70;2432.00;;;;;;5013429;28;20030;-83
2021/08/18 01:09:11;;;;;;;7.63;3.90;;;563.70;2432.00;;;;;;5013405;28;20057;-81
2021/08/18 01:11:44;;;;;;;7.82;3.30;;;563.70;2432.00;;;;;;5013646;28;20036;-80
2021/08/18 01:14:11;;;;;;;9.77;3.55;;;563.70;2432.00;;;;;;5013491;28;20356;-80
2021/08/18 01:16:39;;;;;;;8.85;3.22;;;563.80;2432.00;;;;;;5014608;28;20104;-80
2021/08/18 01:19:06;;;;;;;6.32;3.17;;;563.70;2432.00;;;;;;5013522;28;20117;-80
2021/08/18 01:21:34;;;;;;;7.25;3.28;;;563.80;2432.00;;;;;;5013198;28;20372;-81
2021/08/18 01:24:00;;;;;;;6.28;3.08;;;563.80;2432.00;;;;;;5013461;28;20026;-80
2021/08/18 01:26:26;;;;;;;6.70;3.53;;;563.60;2432.00;;;;;;5013225;28;20029;-80
2021/08/18 01:28:52;;;;;;;8.10;4.00;;;563.30;2432.00;;;;;;5013355;28;20021;-80
2021/08/18 01:31:19;;;;;;;10.00;3.63;;;563.20;2432.00;;;;;;5013388;28;20517;-81
2021/08/18 01:33:45;;;;;;;11.27;4.70;;;538.10;2406.40;;;;;;5014622;28;20022;-81
2021/08/18 01:36:11;;;;;;;8.38;3.90;;;537.90;2406.40;;;;;;5012946;28;20052;-81
2021/08/18 01:38:37;;;;;;;10.35;4.15;;;537.60;2406.40;;;;;;5013295;28;20102;-81
2021/08/18 01:41:03;;;;;;;7.40;4.10;;;537.60;2406.40;;;;;;5013173;28;20033;-81
2021/08/18 01:43:29;;;;;;;11.82;4.20;;;537.80;2406.40;;;;;;5012923;28;20026;-81
2021/08/18 01:45:55;;;;;;;6.93;4.10;;;537.90;2406.40;;;;;;5013124;28;20037;-81
2021/08/18 01:48:25;;;;;;;8.32;3.58;;;538.10;2406.40;;;;;;5012790;28;20024;-82
2021/08/18 01:50:54;;;;;;;7.07;3.50;;;538.40;2406.40;;;;;;5014228;28;20029;-81
2021/08/18 01:53:31;;;;;;;7.18;2.80;;;538.50;2406.40;;;;;;5012967;28;20022;-81
2021/08/18 01:56:03;;;;;;;6.25;3.88;;;563.20;2432.00;;;;;;5012415;28;20054;-81
2021/08/18 01:58:33;;;;;;;8.85;4.20;;;563.20;2432.00;;;;;;5012992;28;20022;-82
2021/08/18 02:00:59;;;;;;;8.32;3.17;;;538.10;2406.40;;;;;;5013070;28;20076;-81
2021/08/18 02:03:25;;;;;;;10.13;3.70;;;537.70;2406.40;;;;;;5012586;28;20097;-82
2021/08/18 02:05:51;;;;;;;7.78;3.70;;;512.80;2380.80;;;;;;5012957;28;20030;-81
2021/08/18 02:08:17;;;;;;;8.95;3.60;;;512.90;2380.80;;;;;;5012300;28;20562;-81
2021/08/18 02:10:43;;;;;;;6.40;3.75;;;537.90;2406.40;;;;;;5013788;28;20037;-81
2021/08/18 02:13:10;;;;;;;8.95;3.85;;;538.00;2406.40;;;;;;5013706;28;20526;-81
2021/08/18 02:15:36;;;;;;;7.78;3.83;;;537.60;2406.40;;;;;;5012583;28;20033;-81
2021/08/18 02:18:04;;;;;;;9.43;3.85;;;512.40;2380.80;;;;;;5014003;28;20037;-81
2021/08/18 02:20:33;;;;;;;9.05;3.70;;;512.90;2380.80;;;;;;5012685;28;20030;-81
2021/08/18 02:23:01;;;;;;;6.90;4.50;;;512.70;2380.80;;;;;;5012714;28;20062;-82
2021/08/18 02:25:26;;;;;;;7.78;3.92;;;512.80;2380.80;;;;;;5012605;28;20053;-82
2021/08/18 02:27:52;;;;;;;7.28;3.90;;;512.30;2380.80;;;;;;5012589;28;20446;-82
2021/08/18 02:30:24;;;;;;;10.75;3.67;;;512.20;2380.80;;;;;;5012277;28;20026;-82
2021/08/18 02:32:50;;;;;;;8.50;3.72;;;512.60;2380.80;;;;;;5012220;28;20056;-81
2021/08/18 02:35:17;;;;;;;8.77;3.83;;;512.30;2380.80;;;;;;5013890;28;20034;-82
2021/08/18 02:37:43;;;;;;;6.93;4.10;;;512.30;2380.80;;;;;;5012247;28;20033;-82
2021/08/18 02:40:11;;;;;;;7.72;3.72;;;512.60;2380.80;;;;;;5012450;28;20022;-82
2021/08/18 02:42:37;;;;;;;8.60;4.03;;;537.60;2406.40;;;;;;5012493;28;20115;-82
2021/08/18 02:45:05;;;;;;;8.18;3.90;;;537.70;2406.40;;;;;;5012316;28;20026;-82
2021/08/18 02:47:31;;;;;;;6.43;3.60;;;537.60;2406.40;;;;;;5012483;28;20463;-82
2021/08/18 02:49:57;;;;;;;5.88;3.35;;;537.70;2406.40;;;;;;5013532;28;20595;-82
2021/08/18 02:52:22;;;;;;;8.25;3.90;;;537.70;2406.40;;;;;;5012342;28;20026;-81
2021/08/18 02:54:48;;;;;;;5.55;3.20;;;537.80;2406.40;;;;;;5012162;28;20075;-81
2021/08/18 02:57:14;;;;;;;6.72;3.25;;;537.70;2406.40;;;;;;5012311;28;20033;-81
2021/08/18 02:59:40;;;;;;;7.47;3.83;;;537.70;2406.40;;;;;;5012000;28;20128;-81
2021/08/18 03:02:05;;;;;;;12.43;3.95;;;537.60;2406.40;;;;;;5012606;28;20068;-82
2021/08/18 03:04:31;;;;;;;6.95;3.50;;;512.70;2380.80;;;;;;5012387;28;20018;-82
2021/08/18 03:06:57;;;;;;;6.47;3.55;;;512.30;2380.80;;;;;;5012043;28;20061;-81
2021/08/18 03:09:24;;;;;;;6.03;3.25;;;512.30;2380.80;;;;;;5013832;28;20026;-81
2021/08/18 03:11:51;;;;;;;8.82;3.63;;;512.40;2380.80;;;;;;5012403;28;20120;-82
2021/08/18 03:14:21;;;;;;;9.35;3.83;;;512.30;2380.80;;;;;;5012014;28;20066;-82
2021/08/18 03:16:47;;;;;;;5.97;3.58;;;512.20;2380.80;;;;;;5012168;28;20030;-82
2021/08/18 03:19:13;;;;;;;8.02;3.53;;;512.10;2380.80;;;;;;5012265;28;20026;-82
2021/08/18 03:21:39;;;;;;;8.82;3.70;;;512.30;2380.80;;;;;;5015968;28;20026;-82
2021/08/18 03:24:05;;;;;;;8.73;3.40;;;512.60;2380.80;;;;;;5017234;28;20053;-82
2021/08/18 03:26:31;;;;;;;8.95;3.10;;;512.90;2380.80;;;;;;5015315;28;20130;-81
2021/08/18 03:28:57;;;;;;;5.43;2.80;;;512.50;2380.80;;;;;;5015605;28;20088;-82
2021/08/18 03:31:23;;;;;;;7.72;3.08;;;512.70;2380.80;;;;;;5015563;28;20490;-82
2021/08/18 03:33:49;;;;;;;5.80;3.08;;;512.80;2380.80;;;;;;5015360;28;20037;-82
2021/08/18 03:36:15;;;;;;;11.15;2.90;;;512.50;2380.80;;;;;;5015539;28;20042;-82
2021/08/18 03:38:40;;;;;;;6.72;2.28;;;512.60;2380.80;;;;;;5015484;28;20478;-81
2021/08/18 03:41:06;;;;;;;6.13;2.72;;;512.60;2380.80;;;;;;5015128;28;20022;-82
2021/08/18 03:43:32;;;;;;;8.07;2.78;;;512.90;2380.80;;;;;;5016603;28;20537;-82
2021/08/18 03:45:58;;;;;;;8.73;2.90;;;512.80;2380.80;;;;;;5015265;28;20120;-82
2021/08/18 03:48:24;;;;;;;11.25;3.17;;;512.80;2380.80;;;;;;5015030;28;20148;-82
2021/08/18 03:50:50;;;;;;;5.22;2.83;;;512.90;2380.80;;;;;;5015262;28;20037;-82
2021/08/18 03:53:16;;;;;;;11.55;2.72;;;512.90;2380.80;;;;;;5015112;28;20033;-82
2021/08/18 03:55:42;;;;;;;10.38;3.10;;;512.90;2380.80;;;;;;5014449;28;20073;-82
2021/08/18 03:58:08;;;;;;;12.10;3.03;;;512.70;2380.80;;;;;;5015119;28;20475;-82
2021/08/18 04:00:34;;;;;;;7.05;3.28;;;512.80;2380.80;;;;;;5015173;28;20030;-81
2021/08/18 04:03:02;;;;;;;9.75;3.42;;;512.70;2380.80;;;;;;5014956;28;20030;-82
2021/08/18 04:05:28;;;;;;;7.35;2.70;;;512.90;2380.80;;;;;;5014846;28;20030;-81
2021/08/18 04:07:53;;;;;;;7.88;3.40;;;512.90;2380.80;;;;;;5014968;28;20030;-81
2021/08/18 04:10:19;;;;;;;7.28;2.47;;;512.80;2380.80;;;;;;5014481;28;20026;-81
2021/08/18 04:12:53;;;;;;;9.95;3.13;;;512.90;2380.80;;;;;;5014919;28;20086;-81
2021/08/18 04:15:23;;;;;;;6.22;3.10;;;512.90;2380.80;;;;;;5014355;28;20121;-81
2021/08/18 04:17:49;;;;;;;7.45;3.03;;;512.80;2380.80;;;;;;5014513;28;20026;-81
2021/08/18 04:20:15;;;;;;;7.07;2.60;;;512.80;2380.80;;;;;;5014742;28;20534;-82
2021/08/18 04:22:41;;;;;;;6.95;2.80;;;512.80;2380.80;;;;;;5014274;28;20121;-82
2021/08/18 04:25:10;;;;;;;7.50;3.13;;;512.70;2380.80;;;;;;5015598;28;20387;-82
2021/08/18 04:27:38;;;;;;;6.03;2.65;;;512.90;2380.80;;;;;;5014615;28;20034;-81
2021/08/18 04:30:06;;;;;;;8.32;2.80;;;537.60;2406.40;;;;;;5014171;28;20026;-82
2021/08/18 04:32:32;;;;;;;9.23;2.80;;;512.80;2380.80;;;;;;5015220;28;20080;-81
2021/08/18 04:34:58;;;;;;;7.55;2.55;;;512.70;2380.80;;;;;;5014332;28;20030;-82
2021/08/18 04:37:24;;;;;;;8.52;2.55;;;512.70;2380.80;;;;;;5014216;28;20455;-82
2021/08/18 04:39:49;;;;;;;7.25;2.75;;;512.70;2380.80;;;;;;5014460;28;20026;-82
2021/08/18 04:42:15;;;;;;;5.40;2.78;;;512.90;2380.80;;;;;;5014519;28;20044;-82
2021/08/18 04:44:41;;;;;;;6.95;3.10;;;512.80;2380.80;;;;;;5015126;28;20030;-82
2021/08/18 04:47:07;;;;;;;11.05;3.35;;;537.60;2406.40;;;;;;5014133;28;20037;-82
2021/08/18 04:49:33;;;;;;;6.38;2.80;;;538.00;2406.40;;;;;;5014148;28;20466;-82
2021/08/18 04:51:58;;;;;;;5.93;2.67;;;537.70;2406.40;;;;;;5013709;28;20030;-81
2021/08/18 04:54:24;;;;;;;9.43;2.95;;;537.60;2406.40;;;;;;5013701;28;20107;-82
2021/08/18 04:56:50;;;;;;;6.57;2.42;;;512.90;2380.80;;;;;;4997508;28;20034;-80
2021/08/18 04:59:15;;;;;;;8.75;2.47;;;537.60;2406.40;;;;;;4997230;28;20030;-81
2021/08/18 05:01:41;;;;;;;7.25;2.70;;;512.90;2380.80;;;;;;4997573;28;20061;-82
2021/08/18 05:04:07;;;;;;;6.28;3.05;;;537.80;2406.40;;;;;;4997319;28;20037;-81
2021/08/18 05:06:34;;;;;;;9.25;3.42;;;537.90;2406.40;;;;;;4997248;28;20037;-82
2021/08/18 05:09:00;;;;;;;12.88;3.53;;;538.00;2406.40;;;;;;5014927;28;20072;-82
2021/08/18 05:11:26;;;;;;;7.07;3.28;;;537.80;2406.40;;;;;;4997322;28;20411;-82
2021/08/18 05:13:51;;;;;;;9.65;3.45;;;537.90;2406.40;;;;;;4997082;28;20032;-81
2021/08/18 05:16:17;;;;;;;6.50;3.55;;;538.00;2406.40;;;;;;5015075;28;20053;-82
2021/08/18 05:18:43;;;;;;;10.75;4.32;;;538.20;2406.40;;;;;;4996883;28;20021;-82
2021/08/18 05:21:09;;;;;;;8.05;3.50;;;537.90;2406.40;;;;;;4997183;28;20029;-82
2021/08/18 05:23:35;;;;;;;11.00;3.75;;;537.80;2406.40;;;;;;5014690;28;20033;-81
2021/08/18 05:26:01;;;;;;;13.20;4.68;;;537.60;2406.40;;;;;;4996903;28;20431;-82
2021/08/18 05:28:27;;;;;;;13.63;6.60;;;537.80;2406.40;;;;;;5014362;28;20068;-82
2021/08/18 05:30:53;;;;;;;22.92;17.58;;;538.00;2406.40;;;;;;4997101;28;20077;-82
2021/08/18 05:33:19;;;;;;;12.98;6.50;;;538.10;2406.40;;;;;;4996815;28;20026;-82
2021/08/18 05:35:44;;;;;;;18.10;7.45;;;538.20;2406.40;;;;;;4996996;28;20108;-82
2021/08/18 05:38:11;;;;;;;12.45;6.90;;;538.10;2406.40;;;;;;4996791;28;20104;-81
2021/08/18 05:40:36;;;;;;;13.18;7.20;;;538.20;2406.40;;;;;;4996588;28;20026;-81
2021/08/18 05:43:02;;;;;;;18.65;7.72;;;538.10;2406.40;;;;;;4996139;28;20022;-81
2021/08/18 05:45:28;;;;;;;10.90;6.47;;;538.10;2406.40;;;;;;5014052;28;20018;-82
2021/08/18 05:47:54;;;;;;;14.68;6.03;;;538.30;2406.40;;;;;;4996673;28;20481;-81
2021/08/18 05:50:20;;;;;;;11.50;5.80;;;538.20;2406.40;;;;;;4996690;28;20033;-81
2021/08/18 05:52:46;;;;;;;14.65;6.15;;;538.30;2406.40;;;;;;4996637;28;20018;-81
2021/08/18 05:55:12;;;;;;;13.93;7.22;;;538.30;2406.40;;;;;;5002424;28;20061;-81
2021/08/18 05:57:38;;;;;;;14.63;6.85;;;538.40;2406.40;;;;;;5014161;28;20037;-81
2021/08/18 06:00:05;;;;;;;9.60;3.20;;;538.30;2406.40;;;;;;5012972;28;20018;-81
2021/08/18 06:02:31;;;;;;;7.05;3.38;;;538.00;2406.40;;;;;;5013908;28;20100;-82
2021/08/18 06:04:57;;;;;;;9.55;4.10;;;538.00;2406.40;;;;;;5012738;28;20096;-82
2021/08/18 06:07:22;;;;;;;9.27;3.30;;;538.00;2406.40;;;;;;5013000;28;20363;-82
2021/08/18 06:09:48;;;;;;;8.40;3.10;;;538.00;2406.40;;;;;;5012752;28;20034;-81
2021/08/18 06:12:14;;;;;;;7.18;3.30;;;537.90;2406.40;;;;;;5014028;28;20102;-82
2021/08/18 06:14:41;;;;;;;9.40;3.17;;;538.00;2406.40;;;;;;5012610;28;20032;-81
2021/08/18 06:17:07;;;;;;;9.10;3.50;;;538.30;2406.40;;;;;;5014261;28;20040;-82
2021/08/18 06:19:32;;;;;;;7.85;3.47;;;538.30;2406.40;;;;;;5012739;28;20026;-81
2021/08/18 06:22:01;;;;;;;8.93;3.78;;;538.50;2406.40;;;;;;5012660;28;20030;-81
2021/08/18 06:24:29;;;;;;;12.50;3.78;;;563.20;2432.00;;;;;;5012923;28;20025;-82
2021/08/18 06:26:56;;;;;;;7.43;3.08;;;563.30;2432.00;;;;;;5012961;28;20133;-82
2021/08/18 06:29:22;;;;;;;16.05;3.72;;;563.40;2432.00;;;;;;5013720;28;20097;-81
2021/08/18 06:31:50;;;;;;;8.52;3.55;;;563.40;2432.00;;;;;;5014078;28;20048;-81
2021/08/18 06:34:18;;;;;;;9.48;3.40;;;563.40;2432.00;;;;;;5012808;28;20081;-81
2021/08/18 06:36:44;;;;;;;10.38;5.68;;;538.50;2406.40;;;;;;5012249;28;20095;-81
2021/08/18 06:39:10;;;;;;;11.32;4.38;;;538.50;2406.40;;;;;;5012776;28;20026;-81
2021/08/18 06:41:36;;;;;;;9.25;3.50;;;563.20;2432.00;;;;;;5012709;28;20105;-81
2021/08/18 06:44:01;;;;;;;9.77;3.22;;;563.30;2432.00;;;;;;5012063;28;20037;-85
2021/08/18 06:46:27;;;;;;;17.98;4.95;;;563.30;2432.00;;;;;;5012531;28;20034;-81
2021/08/18 06:48:53;;;;;;;14.82;6.72;;;563.30;2432.00;;;;;;5012859;28;20026;-81
2021/08/18 06:51:19;;;;;;;12.82;7.60;;;563.30;2432.00;;;;;;5013591;28;20045;-81
2021/08/18 06:53:44;;;;;;;7.03;4.43;;;538.40;2406.40;;;;;;5012578;28;20022;-82
2021/08/18 06:56:11;;;;;;;10.35;6.38;;;538.40;2406.40;;;;;;5016133;28;20056;-81
2021/08/18 06:58:37;;;;;;;9.32;4.00;;;538.50;2406.40;;;;;;5016056;28;20177;-82
2021/08/18 07:01:05;;;;;;;10.32;3.78;;;563.20;2432.00;;;;;;5017464;28;20478;-81
2021/08/18 07:03:31;;;;;;;6.60;3.53;;;538.50;2406.40;;;;;;5016013;28;20029;-79
2021/08/18 07:05:57;;;;;;;7.00;3.58;;;538.50;2406.40;;;;;;5016046;28;20309;-82
2021/08/18 07:08:23;;;;;;;8.88;3.90;;;563.30;2432.00;;;;;;5016211;28;20124;-83
2021/08/18 07:10:49;;;;;;;9.98;3.85;;;563.40;2432.00;;;;;;5016068;28;20033;-82
2021/08/18 07:13:14;;;;;;;7.38;3.63;;;563.30;2432.00;;;;;;5016298;28;20026;-82
2021/08/18 07:15:41;;;;;;;9.15;3.58;;;563.20;2432.00;;;;;;5016044;28;20049;-81
2021/08/18 07:18:07;;;;;;;6.60;3.30;;;563.50;2432.00;;;;;;5015421;28;20033;-80
2021/08/18 07:20:33;;;;;;;7.97;3.97;;;563.40;2432.00;;;;;;5016887;28;20022;-81
2021/08/18 07:22:58;;;;;;;11.63;3.47;;;563.30;2432.00;;;;;;5015716;28;20029;-82
2021/08/18 07:25:24;;;;;;;7.75;2.90;;;563.30;2432.00;;;;;;5015464;28;20030;-79
2021/08/18 07:27:50;;;;;;;5.95;2.95;;;563.30;2406.40;;;;;;5015460;28;20371;-78
2021/08/18 07:30:16;;;;;;;7.47;4.00;;;563.40;2432.00;;;;;;5015390;28;20538;-77
2021/08/18 07:32:41;;;;;;;14.80;3.95;;;563.70;2432.00;;;;;;5016055;28;20368;-78
2021/08/18 07:35:08;;;;;;;9.02;3.50;;;563.90;2380.80;;;;;;5016793;28;20034;-77
2021/08/18 07:37:34;;;;;;;10.23;3.47;;;563.80;2380.80;;;;;;5016277;28;20109;-77
2021/08/18 07:40:00;;;;;;;12.43;3.28;;;563.60;2380.80;;;;;;5014905;28;20599;-78
2021/08/18 07:42:26;;;;;;;7.95;3.30;;;563.60;2406.40;;;;;;5016390;28;20037;-77
2021/08/18 07:44:51;;;;;;;10.88;4.13;;;564.10;2432.00;;;;;;5015073;28;20026;-77
2021/08/18 07:47:17;;;;;;;10.93;3.85;;;589.00;2406.40;;;;;;5014795;28;20372;-77
2021/08/18 07:49:44;;;;;;;9.75;3.42;;;;;;;;;;5016227;28;20523;-77
2021/08/18 07:52:10;;;;;;;9.90;2.85;;;589.20;2252.80;;;;;;5016213;28;20050;-77
2021/08/18 07:54:36;;;;;;;5.65;2.97;;;589.10;2278.40;;;;;;5014285;28;20065;-77
2021/08/18 07:57:01;;;;;;;7.03;3.45;;;589.20;2252.80;;;;;;5014510;28;20480;-77
2021/08/18 07:59:27;;;;;;;9.18;3.47;;;589.30;2252.80;;;;;;5014747;28;20038;-77
2021/08/18 08:01:53;;;;;;;7.47;3.67;;;589.30;2227.20;;;;;;5015993;28;20088;-77
2021/08/18 08:04:19;;;;;;;5.82;3.38;;;589.50;2227.20;;;;;;5016033;28;20026;-76
2021/08/18 08:06:46;;;;;;;5.63;3.13;;;589.70;2227.20;;;;;;5013610;28;20033;-76
2021/08/18 08:09:11;;;;;;;9.95;3.40;;;589.50;2227.20;;;;;;5014606;28;20026;-76
2021/08/18 08:11:37;;;;;;;8.27;3.00;;;589.70;2227.20;;;;;;5014911;28;20120;-81
2021/08/18 08:14:03;;;;;;;5.10;2.72;;;589.70;2227.20;;;;;;5014642;28;20029;-81
2021/08/18 08:16:29;;;;;;;7.65;3.15;;;614.40;2201.60;;;;;;5014825;28;20563;-81
2021/08/18 08:18:55;;;;;;;7.72;2.58;;;614.80;2176.00;;;;;;5014769;28;20025;-81
2021/08/18 08:21:21;;;;;;;5.32;2.75;;;614.70;2176.00;;;;;;5015404;28;20071;-80
2021/08/18 08:23:47;;;;;;;5.25;2.60;;;614.70;2150.40;;;;;;5014485;28;20026;-80
2021/08/18 08:26:12;;;;;;;6.65;2.83;;;614.70;2176.00;;;;;;5014899;28;20041;-82
2021/08/18 08:28:38;;;;;;;4.53;2.63;;;614.90;2124.80;;;;;;5014291;28;20026;-82
2021/08/18 08:31:04;;;;;;;6.80;2.90;;;614.80;2124.80;;;;;;5013463;28;20025;-82
2021/08/18 08:33:30;;;;;;;5.35;2.70;;;614.70;2124.80;;;;;;5013787;28;20466;-82
2021/08/18 08:35:56;;;;;;;6.63;2.83;;;614.80;2124.80;;;;;;5013616;28;20034;-82
2021/08/18 08:38:21;;;;;;;8.93;3.33;;;614.70;2124.80;;;;;;5013792;28;20022;-82
2021/08/18 08:40:47;;;;;;;7.05;2.83;;;615.00;2099.20;;;;;;5014140;28;20030;-82
2021/08/18 08:43:15;;;;;;;5.43;2.67;;;615.20;2073.60;;;;;;5014050;28;20053;-83
2021/08/18 08:45:47;;;;;;;10.85;3.20;;;615.30;2048.00;;;;;;5014332;28;20531;-82
2021/08/18 08:48:17;;;;;;;10.73;3.73;;;640.10;2048.00;;;;;;5014665;28;20128;-81
2021/08/18 08:50:48;;;;;;;9.63;3.60;;;640.60;2048.00;;;;;;5015139;28;20026;-83
2021/08/18 08:53:14;;;;;;;5.97;3.27;;;640.80;2022.40;;;;;;5014284;28;20072;-81
2021/08/18 08:55:42;;;;;;;6.47;2.67;;;665.60;2022.40;;;;;;5014415;28;20542;-81
2021/08/18 08:58:08;;;;;;;4.90;2.72;;;665.60;1996.80;;;;;;4997725;28;20030;-81
2021/08/18 09:00:34;;;;;;;11.70;3.25;;;640.80;1945.60;;;;;;4997587;28;20379;-81
2021/08/18 09:03:10;;;;;;;8.40;2.75;;;640.90;1971.20;;;;;;5014972;28;20415;-82
2021/08/18 09:05:36;;;;;;;9.32;3.50;;;640.90;1945.60;;;;;;4997616;28;20033;-81
2021/08/18 09:08:03;;;;;;;7.75;3.20;;;665.60;1996.80;;;;;;4997488;28;20103;-81
2021/08/18 09:10:29;;;;;;;7.50;4.20;;;665.80;1971.20;;;;;;4996814;28;20574;-81
2021/08/18 09:13:16;;;;;;;6.80;3.13;;;640.50;1920.00;;;;;;5015115;28;20026;-80
2021/08/18 09:16:01;;;;;;;11.57;2.80;;;640.90;1920.00;;;;;;5015108;28;20033;-82
2021/08/18 09:18:39;;;;;;;8.35;3.35;;;640.80;1945.60;;;;;;4997038;28;20083;-79
2021/08/18 09:21:24;;;;;;;6.88;3.03;;;640.50;1920.00;;;;;;4994135;28;20445;-80
2021/08/18 09:23:50;;;;;;;7.05;2.72;;;640.40;1945.60;;;;;;4998643;28;20315;-80
2021/08/18 09:26:20;;;;;;;7.05;3.00;;;640.70;1945.60;;;;;;5011651;28;20052;-81
2021/08/18 09:28:47;;;;;;;6.20;2.90;;;640.60;1920.00;;;;;;5013426;28;20025;-81
2021/08/18 09:31:24;;;;;;;9.45;3.72;;;640.80;1920.00;;;;;;5003085;28;20032;-82
2021/08/18 09:33:59;;;;;;;10.43;3.38;;;640.60;1894.40;;;;;;4995699;28;20533;-82
2021/08/18 09:36:27;;;;;;;7.75;2.70;;;640.90;1920.00;;;;;;5013619;28;20072;-84
2021/08/18 09:39:21;;;;;;;9.10;2.90;;;666.00;1920.00;;;;;;4995923;28;20471;-81
2021/08/18 09:41:47;;;;;;;5.47;2.85;;;666.00;1868.80;;;;;;4996568;28;20030;-82
2021/08/18 09:44:13;;;;;;;5.68;3.20;;;666.00;1894.40;;;;;;5014193;28;20026;-82
2021/08/18 09:46:39;;;;;;;6.10;3.13;;;666.40;1868.80;;;;;;4996048;28;20092;-81
2021/08/18 09:49:10;;;;;;;4.93;2.85;;;666.30;1843.20;;;;;;5014255;28;20518;-81
2021/08/18 09:51:37;;;;;;;8.02;3.60;;;666.40;1817.60;;;;;;4996310;28;20380;-81
2021/08/18 09:54:17;;;;;;;9.50;4.03;;;691.20;1843.20;;;;;;4996547;28;20192;-81
2021/08/18 09:56:45;;;;;;;4.55;2.38;;;691.40;1817.60;;;;;;4996672;28;20040;-81
2021/08/18 09:59:11;;;;;;;5.43;2.70;;;691.80;1740.80;;;;;;4996281;28;20026;-81
2021/08/18 10:01:39;;;;;;;5.43;2.65;;;691.60;1715.20;;;;;;5013911;28;20176;-80
2021/08/18 10:04:05;;;;;;;6.65;2.53;;;691.90;1740.80;;;;;;5014057;28;20037;-80
2021/08/18 10:06:32;;;;;;;5.63;2.28;;;691.80;1715.20;;;;;;5013547;28;20026;-80
2021/08/18 10:08:58;;;;;;;8.73;3.03;;;692.00;1715.20;;;;;;5013908;28;20034;-80
2021/08/18 10:11:26;;;;;;;7.63;3.13;;;716.80;1740.80;;;;;;4996354;28;20068;-80
2021/08/18 10:13:54;;;;;;;8.07;3.20;;;717.00;1740.80;;;;;;4996042;28;20030;-80
2021/08/18 10:16:20;;;;;;;8.30;3.88;;;717.10;1715.20;;;;;;4996228;28;20034;-81
2021/08/18 10:18:53;;;;;;;5.22;2.90;;;692.10;1715.20;;;;;;4996418;28;20034;-82
2021/08/18 10:21:24;;;;;;;7.15;3.13;;;692.10;1715.20;;;;;;4996243;28;20030;-79
2021/08/18 10:23:57;;;;;;;7.80;3.05;;;716.90;1740.80;;;;;;4996376;28;20482;-80
2021/08/18 10:26:33;;;;;;;5.47;2.97;;;717.20;1740.80;;;;;;4996260;28;20494;-81
2021/08/18 10:29:04;;;;;;;7.43;3.08;;;717.60;1689.60;;;;;;4996336;28;20037;-80
2021/08/18 10:31:42;;;;;;;6.27;3.20;;;742.40;1740.80;;;;;;5000338;28;20375;-78
2021/08/18 10:34:26;;;;;;;7.20;3.33;;;742.90;1689.60;;;;;;4999820;28;20486;-78
2021/08/18 10:36:52;;;;;;;6.57;2.90;;;742.50;1689.60;;;;;;5017303;28;20426;-80
2021/08/18 10:39:18;;;;;;;7.00;3.30;;;717.50;1664.00;;;;;;5000386;28;20451;-80
2021/08/18 10:41:56;;;;;;;6.65;2.92;;;742.70;1664.00;;;;;;4999628;28;20045;-78
2021/08/18 10:44:44;;;;;;;7.93;3.72;;;742.60;1664.00;;;;;;5017599;28;20026;-79
2021/08/18 10:47:20;;;;;;;7.35;3.80;;;743.30;1664.00;;;;;;5000071;28;20049;-82
2021/08/18 10:49:57;;;;;;;8.95;2.95;;;768.30;1638.40;;;;;;4999436;28;20418;-80
2021/08/18 10:52:29;;;;;;;8.40;3.05;;;768.10;1612.80;;;;;;4999612;28;20026;-80
2021/08/18 10:55:01;;;;;;;;;;;768.10;1587.20;;;;;;5005890;28;20056;-81
2021/08/18 10:57:38;;;;;;;10.57;3.25;;;768.30;1587.20;;;;;;5015113;28;20323;-82
2021/08/18 11:00:10;;;;;;;8.57;3.15;;;743.30;1587.20;;;;;;5014338;28;20066;-80
2021/08/18 11:02:57;;;;;;;8.27;2.80;;;743.00;1612.80;;;;;;5015588;28;20030;-81
2021/08/18 11:05:26;;;;;;;7.50;3.08;;;768.10;1612.80;;;;;;5015328;28;20030;-81
2021/08/18 11:08:24;;;;;;;8.45;3.20;;;768.40;1587.20;;;;;;5015683;28;20034;-82
2021/08/18 11:10:53;;;;;;;6.78;3.50;;;768.40;1587.20;;;;;;5015077;28;20034;-81
2021/08/18 11:13:46;;;;;;;5.20;3.13;;;793.70;1612.80;;;;;;5015269;28;20165;-82
2021/08/18 11:16:26;;;;;;;9.40;3.72;;;793.90;1561.60;;;;;;5014966;28;20037;-81
2021/08/18 11:18:53;;;;;;;6.35;3.50;;;793.90;1587.20;;;;;;5014922;28;20064;-80
2021/08/18 11:21:22;;;;;;;7.88;3.70;;;794.10;1536.00;;;;;;5015180;28;20026;-82
2021/08/18 11:24:16;;;;;;;8.25;3.20;;;794.00;1536.00;;;;;;5014640;28;20394;-82
2021/08/18 11:26:44;;;;;;;8.63;3.00;;;794.20;1536.00;;;;;;5014647;28;20124;-81
2021/08/18 11:29:10;;;;;;;7.25;3.90;;;794.40;1561.60;;;;;;5016024;28;20073;-82
2021/08/18 11:31:51;;;;;;;6.97;3.00;;;794.40;1536.00;;;;;;5013876;28;20365;-82
2021/08/18 11:34:23;;;;;;;9.15;3.70;;;794.50;1510.40;;;;;;5014288;28;20022;-82
2021/08/18 11:36:50;;;;;;;8.95;3.70;;;794.10;1536.00;;;;;;5014401;28;20034;-81
2021/08/18 11:39:17;;;;;;;6.75;3.33;;;794.50;1536.00;;;;;;5014319;28;20040;-81
2021/08/18 11:41:47;;;;;;;6.13;3.50;;;819.30;1484.80;;;;;;5013382;28;20083;-81
2021/08/18 11:44:25;;;;;;;5.00;3.00;;;819.40;1536.00;;;;;;5014559;28;20467;-81
2021/08/18 11:46:52;;;;;;;5.07;3.13;;;819.30;1484.80;;;;;;5014646;28;20052;-81
2021/08/18 11:49:23;;;;;;;9.52;4.30;;;794.00;1536.00;;;;;;5014736;28;20053;-82
2021/08/18 11:51:49;;;;;;;9.05;3.50;;;819.30;1510.40;;;;;;5014680;28;20037;-82
2021/08/18 11:54:20;;;;;;;5.10;3.20;;;820.00;1484.80;;;;;;5015227;28;20026;-82
2021/08/18 11:57:01;;;;;;;6.15;2.97;;;844.80;1459.20;;;;;;4999116;28;20034;-82
2021/08/18 11:59:27;;;;;;;8.32;3.58;;;819.90;1433.60;;;;;;5016101;28;20033;-82
2021/08/18 12:01:54;;;;;;;5.03;2.70;;;819.60;1433.60;;;;;;4998716;28;20030;-82
2021/08/18 12:04:22;;;;;;;7.38;2.67;;;819.80;1433.60;;;;;;4998772;28;20026;-83
2021/08/18 12:07:12;;;;;;;5.35;2.80;;;819.30;1433.60;;;;;;4998689;28;20045;-84
2021/08/18 12:09:39;;;;;;;6.13;2.60;;;794.20;1459.20;;;;;;4998946;28;20029;-84
2021/08/18 12:12:19;;;;;;;7.00;2.72;;;819.30;1484.80;;;;;;4998804;28;20378;-84
2021/08/18 12:14:48;;;;;;;5.47;2.50;;;819.60;1433.60;;;;;;4999290;28;20032;-84
2021/08/18 12:17:14;;;;;;;8.00;2.45;;;819.80;1433.60;;;;;;4998615;28;20034;-82
2021/08/18 12:19:48;;;;;;;7.03;2.50;;;820.10;1433.60;;;;;;4998398;28;20040;-82